Time;durP1;ratioP1;P1;durP2;ratioP2;P2;SDS_P1;SDS_P2;PMS_P1;PMS_P2;Temp;Humidity;BMP_temperature;BMP_pressure;BME280_temperature;BME280_humidity;BME280_pressure;Samples;Min_cycle;Max_cycle;Signal;HPM_P1;HPM_P2
2023/01/08 00:01:41;;;;;;;;;89.00;67.75;;;;;12.25;54.21;99689.63;5090607;28;11568;-78
2023/01/08 00:04:10;;;;;;;;;115.00;108.00;;;;;12.26;54.44;99688.72;5107666;28;11413;-79
2023/01/08 00:06:39;;;;;;;;;119.25;110.75;;;;;12.26;53.96;99688.72;5107536;28;11492;-77
2023/01/08 00:09:10;;;;;;;;;120.50;105.50;;;;;12.24;54.63;99680.91;5107944;28;11496;-76
2023/01/08 00:11:39;;;;;;;;;116.50;105.50;;;;;12.21;54.20;99685.25;5107597;28;11438;-78
2023/01/08 00:14:07;;;;;;;;;116.75;108.00;;;;;12.20;54.21;99683.53;5090509;28;11719;-78
2023/01/08 00:16:38;;;;;;;;;126.50;116.00;;;;;12.20;54.41;99678.31;5107394;28;11525;-79
2023/01/08 00:19:07;;;;;;;;;127.00;110.25;;;;;12.17;54.49;99673.09;5094977;28;11514;-79
2023/01/08 00:21:36;;;;;;;;;118.25;112.50;;;;;12.16;53.92;99677.47;5092253;28;11497;-77
2023/01/08 00:24:05;;;;;;;;;117.50;104.25;;;;;12.11;53.94;99676.59;5107702;28;11534;-79
2023/01/08 00:26:34;;;;;;;;;123.00;110.50;;;;;12.08;54.13;99680.13;5024325;28;11546;-78
2023/01/08 00:29:03;;;;;;;;;117.00;107.25;;;;;12.07;53.48;99678.34;5110376;27;11687;-78
2023/01/08 00:31:31;;;;;;;;;120.25;105.25;;;;;12.02;54.09;99680.16;5128749;27;11647;-78
2023/01/08 00:34:02;;;;;;;;;111.75;101.25;;;;;12.02;54.29;99682.75;5108035;28;11549;-80
2023/01/08 00:36:30;;;;;;;;;120.00;107.75;;;;;11.87;54.45;99683.66;5108461;28;12283;-77
2023/01/08 00:38:59;;;;;;;;;110.50;99.75;;;;;11.87;54.57;99681.03;5091413;28;11568;-79
2023/01/08 00:41:28;;;;;;;;;102.50;90.75;;;;;11.71;55.86;99684.56;5108603;28;12300;-78
2023/01/08 00:43:57;;;;;;;;;111.00;103.50;;;;;11.57;55.40;99697.66;5108152;28;11359;-77
2023/01/08 00:46:26;;;;;;;;;104.75;98.50;;;;;11.53;56.47;99690.72;5073353;28;11541;-77
2023/01/08 00:48:55;;;;;;;;;99.75;96.00;;;;;11.54;56.07;99687.22;5108124;28;11616;-78
2023/01/08 00:51:26;;;;;;;;;110.75;103.25;;;;;11.59;55.77;99684.63;5106790;28;11560;-77
2023/01/08 00:53:55;;;;;;;;;113.00;90.75;;;;;11.61;55.79;99694.19;5106884;28;11522;-78
2023/01/08 00:56:23;;;;;;;;;99.25;90.50;;;;;11.65;56.38;99687.22;5106277;28;11125;-77
2023/01/08 00:58:52;;;;;;;;;108.50;99.25;;;;;11.64;56.15;99688.94;5089503;28;11252;-78
2023/01/08 01:01:21;;;;;;;;;100.75;89.50;;;;;11.64;55.81;99685.44;5106329;28;10964;-77
2023/01/08 01:03:50;;;;;;;;;107.00;85.75;;;;;11.67;56.30;99691.53;5073006;28;10794;-76
2023/01/08 01:06:19;;;;;;;;;101.00;89.50;;;;;11.66;56.72;99686.31;5089404;28;10842;-77
2023/01/08 01:08:49;;;;;;;;;103.25;92.50;;;;;11.65;57.27;99693.28;5023414;28;10770;-77
2023/01/08 01:11:21;;;;;;;;;100.00;86.50;;;;;11.68;56.78;99690.69;5085895;28;10977;-79
2023/01/08 01:13:51;;;;;;;;;109.00;94.50;;;;;11.74;56.49;99694.13;5086481;28;10790;-76
2023/01/08 01:16:19;;;;;;;;;101.50;96.00;;;;;11.73;56.34;99697.63;5085706;28;10758;-78
2023/01/08 01:18:51;;;;;;;;;99.00;88.00;;;;;11.75;56.66;99688.03;5035924;28;10827;-78
2023/01/08 01:21:23;;;;;;;;;104.50;98.00;;;;;11.79;56.57;99687.16;5068827;28;11032;-79
2023/01/08 01:23:56;;;;;;;;;104.75;96.75;;;;;11.81;55.97;99688.00;5089240;28;11059;-77
2023/01/08 01:26:26;;;;;;;;;101.00;88.25;;;;;11.78;55.60;99690.66;5055738;28;10936;-76
2023/01/08 01:28:57;;;;;;;;;104.00;95.50;;;;;11.77;55.97;99687.16;5100920;28;11125;-77
2023/01/08 01:31:28;;;;;;;;;104.25;99.25;;;;;11.75;55.18;99688.03;5068891;28;11553;-79
2023/01/08 01:33:57;;;;;;;;;110.75;95.00;;;;;11.71;55.81;99688.03;5052156;28;11502;-78
2023/01/08 01:36:26;;;;;;;;;109.25;99.50;;;;;11.68;55.74;99693.28;5068846;28;11555;-79
2023/01/08 01:38:58;;;;;;;;;108.25;99.25;;;;;11.66;55.35;99684.59;5085731;28;11525;-78
2023/01/08 01:41:29;;;;;;;;;109.50;96.50;;;;;11.61;55.79;99693.31;5070006;28;11358;-79
2023/01/08 01:44:00;;;;;;;;;110.00;94.50;;;;;11.58;55.30;99683.72;5111971;28;11244;-79
2023/01/08 01:46:36;;;;;;;;;109.75;99.50;;;;;11.67;55.57;99685.47;5113754;28;11298;-78
2023/01/08 01:49:10;;;;;;;;;108.50;98.25;;;;;11.52;55.89;99684.59;5113846;28;11303;-79
2023/01/08 01:51:44;;;;;;;;;106.75;100.75;;;;;11.48;55.59;99679.41;5115380;27;11171;-77
2023/01/08 01:54:17;;;;;;;;;111.00;99.50;;;;;11.50;55.41;99678.53;5113954;28;11563;-78
2023/01/08 01:56:46;;;;;;;;;106.25;95.50;;;;;11.49;55.91;99683.75;5115573;28;11327;-79
2023/01/08 01:59:16;;;;;;;;;103.25;91.75;;;;;11.46;55.89;99686.38;5115503;27;11291;-78
2023/01/08 02:01:46;;;;;;;;;101.75;91.75;;;;;11.45;55.95;99682.88;5097344;28;11171;-77
2023/01/08 02:04:15;;;;;;;;;101.75;90.25;;;;;11.37;55.75;99679.41;5115311;28;11233;-77
2023/01/08 02:06:49;;;;;;;;;103.50;94.00;;;;;11.27;57.14;99670.75;5116161;28;11263;-77
2023/01/08 02:09:23;;;;;;;;;107.00;89.25;;;;;11.24;56.81;99677.69;5114411;28;11185;-78
2023/01/08 02:14:53;;;;;;;;;100.50;87.00;;;;;11.18;57.46;99673.34;5077001;28;10929;-77
2023/01/08 02:17:32;;;;;;;;;88.75;71.50;;;;;11.18;57.72;99667.28;5094036;28;11151;-78
2023/01/08 02:20:08;;;;;;;;;100.50;86.75;;;;;11.02;57.94;99664.69;5093970;28;11114;-77
2023/01/08 02:22:48;;;;;;;;;99.25;93.00;;;;;11.18;57.92;99664.66;5094052;28;10628;-79
2023/01/08 02:25:30;;;;;;;;;103.50;88.25;;;;;11.15;57.95;99668.13;5093095;28;10843;-78
2023/01/08 02:28:05;;;;;;;;;104.25;95.00;;;;;11.08;58.52;99661.19;5093125;28;11146;-79
2023/01/08 02:30:34;;;;;;;;;98.75;82.50;;;;;11.11;57.58;99667.28;5095840;28;11193;-79
2023/01/08 02:33:02;;;;;;;;;97.75;86.50;;;;;11.06;58.11;99661.19;5113847;28;11065;-76
2023/01/08 02:35:40;;;;;;;;;100.50;92.00;;;;;11.14;57.84;99665.53;5113413;28;11534;-80
2023/01/08 02:38:13;;;;;;;;;100.75;92.00;;;;;11.13;57.53;99662.03;5096598;28;11242;-79
2023/01/08 02:40:53;;;;;;;;;100.25;87.25;;;;;11.21;57.23;99670.75;5113498;28;11078;-79
2023/01/08 02:43:29;;;;;;;;;99.25;82.50;;;;;11.23;57.47;99665.53;5113476;27;10789;-77
2023/01/08 02:46:01;;;;;;;;;97.25;86.50;;;;;11.18;57.71;99668.13;5113664;28;10759;-78
2023/01/08 02:48:36;;;;;;;;;105.25;93.25;;;;;11.21;57.06;99665.53;5096507;28;11116;-79
2023/01/08 02:51:10;;;;;;;;;101.75;93.00;;;;;11.15;57.43;99664.66;5113428;28;10828;-78
2023/01/08 02:53:43;;;;;;;;;102.25;92.75;;;;;11.13;57.07;99654.22;5091756;28;10834;-79
2023/01/08 02:56:15;;;;;;;;;102.50;95.75;;;;;11.01;58.16;99660.31;5071124;28;10563;-78
2023/01/08 02:58:47;;;;;;;;;100.50;83.00;;;;;10.73;59.61;99660.31;5071301;28;10780;-76
2023/01/08 03:01:18;;;;;;;;;108.25;91.00;;;;;10.51;60.76;99667.25;5090287;28;10713;-77
2023/01/08 03:03:52;;;;;;;;;103.50;90.50;;;;;10.32;61.13;99660.25;5091557;28;10739;-77
2023/01/08 03:06:21;;;;;;;;;103.25;92.50;;;;;10.44;60.85;99651.59;5091727;28;10898;-79
2023/01/08 03:08:52;;;;;;;;;100.50;86.00;;;;;10.24;61.34;99654.13;5067670;28;10851;-77
2023/01/08 03:11:23;;;;;;;;;102.50;90.50;;;;;10.09;62.34;99657.53;5068071;28;10699;-77
2023/01/08 03:13:57;;;;;;;;;98.50;84.75;;;;;10.13;62.66;99656.69;5067749;28;11332;-79
2023/01/08 03:16:33;;;;;;;;;101.75;91.25;;;;;10.22;62.31;99661.94;5051097;28;11121;-76
2023/01/08 03:19:09;;;;;;;;;99.50;86.75;;;;;10.41;61.86;99655.06;5002072;28;10722;-77
2023/01/08 03:21:41;;;;;;;;;99.00;93.50;;;;;10.48;61.11;99654.19;5051062;28;10805;-76
2023/01/08 03:24:14;;;;;;;;;62.25;49.00;;;;;10.56;61.31;99658.56;5076719;28;11064;-77
2023/01/08 03:26:47;;;;;;;;;98.75;85.25;;;;;10.60;60.71;99652.47;5108905;28;11118;-78
2023/01/08 03:29:20;;;;;;;;;99.50;90.25;;;;;10.69;60.74;99655.09;5087811;28;10890;-78
2023/01/08 03:31:51;;;;;;;;;89.50;75.00;;;;;10.76;59.95;99648.16;5088407;28;10886;-78
2023/01/08 03:34:21;;;;;;;;;107.75;95.25;;;;;10.76;59.88;99643.81;5071109;28;10567;-77
2023/01/08 03:36:53;;;;;;;;;104.25;89.00;;;;;10.57;60.59;99642.94;5038154;28;10810;-77
2023/01/08 03:39:28;;;;;;;;;101.75;90.75;;;;;10.65;60.36;99649.00;5074148;28;10701;-78
2023/01/08 03:42:01;;;;;;;;;99.25;91.75;;;;;10.62;60.30;99642.91;5074910;28;10733;-78
2023/01/08 03:44:31;;;;;;;;;98.75;86.25;;;;;10.57;60.90;99649.84;5109673;28;10728;-78
2023/01/08 03:47:00;;;;;;;;;103.75;93.00;;;;;10.53;61.26;99646.41;5091292;28;10413;-79
2023/01/08 03:49:30;;;;;;;;;104.00;93.75;;;;;10.41;61.72;99652.44;5093148;28;10503;-79
2023/01/08 03:51:58;;;;;;;;;100.25;89.75;;;;;10.26;62.76;99647.16;5090895;28;11142;-77
2023/01/08 03:54:31;;;;;;;;;105.00;96.50;;;;;10.29;62.73;99648.06;5070684;28;10930;-77
2023/01/08 03:57:00;;;;;;;;;99.75;88.25;;;;;9.94;63.97;99653.16;5038485;28;10909;-78
2023/01/08 03:59:29;;;;;;;;;95.00;77.75;;;;;10.20;63.15;99653.25;5070580;28;10905;-79
2023/01/08 04:01:59;;;;;;;;;98.75;88.50;;;;;10.21;63.19;99652.38;5054180;28;10582;-76
2023/01/08 04:04:28;;;;;;;;;100.75;89.00;;;;;10.33;62.82;99654.19;5087868;28;10673;-78
2023/01/08 04:06:57;;;;;;;;;98.00;84.50;;;;;10.28;62.68;99659.34;5087531;28;10604;-78
2023/01/08 04:09:25;;;;;;;;;102.00;90.25;;;;;10.32;62.78;99657.63;5070287;28;10682;-77
2023/01/08 04:11:54;;;;;;;;;96.25;81.50;;;;;10.23;63.74;99650.66;5090650;28;10816;-78
2023/01/08 04:14:23;;;;;;;;;94.50;78.25;;;;;10.42;62.95;99656.81;5090883;28;10759;-77
2023/01/08 04:16:52;;;;;;;;;97.50;83.50;;;;;10.57;62.38;99655.06;5041169;28;10700;-78
2023/01/08 04:19:22;;;;;;;;;101.00;86.25;;;;;10.44;62.69;99655.06;5091551;28;10598;-78
2023/01/08 04:21:51;;;;;;;;;94.75;80.75;;;;;10.70;61.64;99655.09;5091373;28;10590;-78
2023/01/08 04:24:20;;;;;;;;;100.50;92.25;;;;;10.88;60.83;99663.81;5128370;27;10409;-77
2023/01/08 04:26:49;;;;;;;;;90.50;78.25;;;;;10.99;60.84;99661.19;5130003;27;10517;-77
2023/01/08 04:29:17;;;;;;;;;101.50;87.75;;;;;11.10;60.13;99656.84;5130178;27;10585;-79
2023/01/08 04:31:46;;;;;;;;;97.50;85.00;;;;;11.15;59.77;99659.44;5123782;27;10413;-76
2023/01/08 04:34:15;;;;;;;;;88.75;70.50;;;;;10.96;60.36;99656.81;5108709;28;10502;-79
2023/01/08 04:36:45;;;;;;;;;99.50;88.75;;;;;10.85;60.84;99659.47;5108765;28;10523;-77
2023/01/08 04:39:14;;;;;;;;;102.50;93.75;;;;;10.95;60.61;99657.72;5091740;28;10527;-77
2023/01/08 04:41:43;;;;;;;;;90.25;79.25;;;;;11.00;60.52;99657.69;5069817;28;10674;-78
2023/01/08 04:44:11;;;;;;;;;99.75;89.25;;;;;10.97;60.62;99665.56;5053280;28;10423;-79
2023/01/08 04:46:40;;;;;;;;;99.00;86.50;;;;;11.03;59.94;99663.78;5069863;28;10930;-77
2023/01/08 04:49:10;;;;;;;;;98.00;89.50;;;;;11.02;60.15;99666.41;5099656;28;10573;-80
2023/01/08 04:51:39;;;;;;;;;99.75;86.75;;;;;10.98;59.96;99660.31;5106665;28;10320;-79
2023/01/08 04:54:09;;;;;;;;;98.75;85.25;;;;;11.11;59.47;99664.69;5073027;28;11549;-78
2023/01/08 04:56:38;;;;;;;;;97.50;86.00;;;;;11.15;59.54;99665.50;5072817;28;10557;-79
2023/01/08 04:59:07;;;;;;;;;94.75;82.50;;;;;11.10;59.24;99672.50;5089954;28;10731;-78
2023/01/08 05:01:36;;;;;;;;;98.25;85.75;;;;;11.12;59.26;99673.38;5089619;28;10724;-77
2023/01/08 05:04:05;;;;;;;;;98.00;83.50;;;;;10.91;60.09;99664.69;5072517;28;11454;-76
2023/01/08 05:06:34;;;;;;;;;97.25;86.25;;;;;10.69;60.55;99673.34;5089331;28;10424;-78
2023/01/08 05:09:03;;;;;;;;;100.75;90.50;;;;;10.46;61.50;99671.59;5089483;28;10591;-76
2023/01/08 05:11:36;;;;;;;;;98.25;87.50;;;;;10.34;62.26;99674.19;5089112;28;10556;-77
2023/01/08 05:14:05;;;;;;;;;101.00;87.75;;;;;10.54;61.59;99674.19;5107191;28;10502;-78
2023/01/08 05:16:34;;;;;;;;;97.75;84.75;;;;;10.63;61.57;99670.75;5124716;27;10604;-78
2023/01/08 05:19:02;;;;;;;;;91.50;75.00;;;;;10.80;60.62;99666.41;5106965;28;10612;-76
2023/01/08 05:21:31;;;;;;;;;94.75;77.50;;;;;10.95;59.88;99675.97;5119675;27;10605;-78
2023/01/08 05:24:00;;;;;;;;;98.25;88.25;;;;;11.07;59.39;99677.72;5108014;28;10512;-77
2023/01/08 05:26:29;;;;;;;;;99.25;87.50;;;;;11.13;59.11;99680.31;5107506;28;10746;-76
2023/01/08 05:28:59;;;;;;;;;97.50;84.75;;;;;11.17;59.36;99681.19;5107174;28;10650;-80
2023/01/08 05:31:28;;;;;;;;;101.00;89.50;;;;;11.24;58.78;99688.13;5107166;28;10606;-76
2023/01/08 05:33:58;;;;;;;;;101.25;88.75;;;;;11.27;58.51;99685.53;5090936;28;10728;-77
2023/01/08 05:36:27;;;;;;;;;101.25;87.75;;;;;11.32;58.11;99684.66;5112931;28;11171;-77
2023/01/08 05:38:56;;;;;;;;;101.00;91.75;;;;;11.36;58.03;99687.25;5108803;28;10768;-77
2023/01/08 05:41:25;;;;;;;;;106.75;93.00;;;;;11.42;57.30;99695.09;5072896;28;10930;-78
2023/01/08 05:43:54;;;;;;;;;98.75;87.75;;;;;11.44;57.47;99699.44;5107277;28;10938;-80
2023/01/08 05:46:24;;;;;;;;;97.75;83.50;;;;;11.49;57.20;99702.03;5107579;28;10699;-79
2023/01/08 05:48:53;;;;;;;;;98.25;83.50;;;;;11.50;57.33;99704.63;5107088;28;10781;-77
2023/01/08 05:51:21;;;;;;;;;101.75;86.25;;;;;11.48;57.82;99698.53;5107518;28;10698;-76
2023/01/08 05:53:50;;;;;;;;;98.00;86.25;;;;;11.49;57.74;99700.31;5107394;28;10397;-80
2023/01/08 05:56:19;;;;;;;;;98.50;84.25;;;;;11.55;57.82;99709.88;5107359;28;10614;-78
2023/01/08 05:58:47;;;;;;;;;97.50;87.75;;;;;11.52;58.08;99705.50;5090595;28;10689;-80
2023/01/08 06:01:16;;;;;;;;;99.25;86.00;;;;;11.56;58.11;99698.53;5107152;28;10745;-77
2023/01/08 06:03:46;;;;;;;;;97.75;86.75;;;;;11.59;57.31;99702.91;5124612;28;10756;-80
2023/01/08 06:06:15;;;;;;;;;102.25;92.75;;;;;11.56;58.01;99695.91;5107485;28;10681;-78
2023/01/08 06:08:44;;;;;;;;;98.50;88.50;;;;;11.46;58.26;99694.22;5107415;28;10868;-78
2023/01/08 06:11:13;;;;;;;;;99.00;89.75;;;;;11.52;58.56;99691.59;5108313;28;11478;-76
2023/01/08 06:13:43;;;;;;;;;97.75;84.75;;;;;11.38;58.55;99689.00;5124312;28;10605;-78
2023/01/08 06:16:13;;;;;;;;;93.75;80.00;;;;;11.38;59.16;99680.28;5105983;28;11081;-77
2023/01/08 06:18:41;;;;;;;;;91.00;74.25;;;;;11.29;59.10;99681.19;5108074;28;10923;-77
2023/01/08 06:21:12;;;;;;;;;92.50;76.75;;;;;11.38;58.81;99686.41;5123863;28;10266;-78
2023/01/08 06:23:41;;;;;;;;;95.00;79.00;;;;;11.26;59.17;99682.03;5106592;28;10355;-77
2023/01/08 06:26:10;;;;;;;;;93.75;77.25;;;;;11.32;59.71;99686.38;5106750;28;10141;-77
2023/01/08 06:28:39;;;;;;;;;85.25;67.00;;;;;11.36;58.74;99685.53;5092788;27;10425;-80
2023/01/08 06:31:07;;;;;;;;;90.00;72.50;;;;;11.32;59.43;99682.06;5129033;27;9886;-79
2023/01/08 06:33:36;;;;;;;;;86.50;68.75;;;;;11.37;58.97;99682.03;5130999;27;10068;-79
2023/01/08 06:36:06;;;;;;;;;82.50;64.00;;;;;11.45;58.71;99679.41;5130959;27;9595;-80
2023/01/08 06:38:37;;;;;;;;;88.50;70.25;;;;;11.63;58.84;99668.91;5132574;27;9538;-80
2023/01/08 06:41:07;;;;;;;;;89.50;77.00;;;;;11.78;58.06;99680.22;5131208;27;9939;-77
2023/01/08 06:43:36;;;;;;;;;88.50;71.50;;;;;11.92;57.34;99677.56;5096950;27;10244;-77
2023/01/08 06:46:07;;;;;;;;;91.00;78.50;;;;;11.98;56.69;99678.41;5113896;27;10244;-77
2023/01/08 06:48:37;;;;;;;;;87.00;73.67;;;;;11.99;57.04;99674.06;5134252;27;10421;-79
2023/01/08 06:51:06;;;;;;;;;89.75;72.25;;;;;12.10;56.20;99680.13;5134132;27;10022;-77
2023/01/08 06:53:37;;;;;;;;;88.75;71.75;;;;;12.22;56.56;99674.81;5066675;27;9745;-81
2023/01/08 06:56:08;;;;;;;;;83.75;68.00;;;;;12.29;56.66;99671.28;5117103;27;9925;-75
2023/01/08 06:58:38;;;;;;;;;87.00;70.00;;;;;12.30;55.42;99677.38;5117037;27;10914;-78
2023/01/08 07:01:07;;;;;;;;;87.50;70.50;;;;;12.00;57.02;99686.22;5133923;27;9847;-79
2023/01/08 07:03:35;;;;;;;;;148.25;135.25;;;;;12.31;55.70;99680.88;5139479;27;10016;-77
2023/01/08 07:06:05;;;;;;;;;94.50;83.00;;;;;12.37;55.67;99689.56;5161084;27;12372;-78
2023/01/08 07:08:34;;;;;;;;;87.50;74.00;;;;;11.97;56.28;99688.88;5161421;27;12383;-78
2023/01/08 07:11:04;;;;;;;;;98.25;87.75;;;;;11.58;57.77;99698.53;5106385;27;10115;-77
2023/01/08 07:13:33;;;;;;;;;97.75;84.75;;;;;11.35;58.65;99701.19;5124335;27;10657;-79
2023/01/08 07:16:06;;;;;;;;;93.25;80.00;;;;;11.50;58.66;99701.16;5124201;27;10419;-77
2023/01/08 07:18:35;;;;;;;;;94.50;80.75;;;;;11.40;58.53;99700.31;5154765;27;10659;-78
2023/01/08 07:21:05;;;;;;;;;29.75;22.00;;;;;11.41;58.89;99711.63;5101067;27;11592;-81
2023/01/08 07:23:34;;;;;;;;;95.25;80.50;;;;;11.49;57.93;99721.19;5131970;27;10650;-78
2023/01/08 07:26:06;;;;;;;;;98.75;85.75;;;;;11.57;57.65;99722.91;5116509;27;10591;-78
2023/01/08 07:28:35;;;;;;;;;95.75;87.00;;;;;11.75;57.21;99729.84;5130377;27;11029;-78
2023/01/08 07:31:05;;;;;;;;;102.00;93.25;;;;;11.89;55.92;99730.69;5113086;27;10815;-76
2023/01/08 07:33:34;;;;;;;;;100.00;94.50;;;;;12.06;55.50;99735.88;5133403;27;11711;-78
2023/01/08 07:36:04;;;;;;;;;95.25;84.75;;;;;12.25;55.22;99729.72;5116592;27;10730;-77
2023/01/08 07:38:33;;;;;;;;;96.75;87.25;;;;;12.43;54.98;99735.72;5133080;27;10661;-77
2023/01/08 07:41:03;;;;;;;;;99.75;85.00;;;;;12.60;55.16;99727.78;5133248;27;10677;-77
2023/01/08 07:43:34;;;;;;;;;90.50;77.00;;;;;12.76;54.56;99732.06;5117241;27;10466;-78
2023/01/08 07:46:03;;;;;;;;;95.50;86.00;;;;;12.91;53.64;99717.09;5108769;28;10201;-80
2023/01/08 07:48:33;;;;;;;;;97.00;85.75;;;;;13.05;54.12;99726.59;5091788;28;10509;-79
2023/01/08 07:51:02;;;;;;;;;94.00;83.50;;;;;13.10;53.53;99725.69;5095359;28;10340;-78
2023/01/08 07:53:31;;;;;;;;;121.25;111.25;;;;;13.26;52.99;99717.69;5108627;28;10650;-80
2023/01/08 07:56:01;;;;;;;;;101.50;90.75;;;;;13.32;53.08;99723.81;5073817;28;11619;-78
2023/01/08 07:58:29;;;;;;;;;91.00;79.00;;;;;13.40;52.84;99724.59;5107144;28;10918;-77
2023/01/08 08:01:00;;;;;;;;;60.25;45.50;;;;;13.55;52.93;99718.34;5090590;28;10598;-79
2023/01/08 08:03:29;;;;;;;;;88.00;77.00;;;;;13.66;52.56;99724.34;5073522;28;11486;-79
2023/01/08 08:05:59;;;;;;;;;93.25;81.75;;;;;13.81;52.61;99716.31;5107426;28;10165;-79
2023/01/08 08:08:28;;;;;;;;;87.25;67.25;;;;;13.91;52.11;99717.06;5073674;28;10314;-80
2023/01/08 08:10:57;;;;;;;;;84.25;71.00;;;;;14.02;51.67;99706.47;5107121;28;9990;-80
2023/01/08 08:13:26;;;;;;;;;85.00;68.00;;;;;14.17;51.38;99708.03;5107894;28;10038;-76
2023/01/08 08:15:55;;;;;;;;;89.00;74.00;;;;;14.28;50.74;99706.16;5057796;28;9799;-80
2023/01/08 08:18:25;;;;;;;;;88.50;73.25;;;;;14.36;50.74;99714.78;5090210;28;11183;-78
2023/01/08 08:20:54;;;;;;;;;194.67;171.33;;;;;14.36;50.76;99712.16;5090449;28;10353;-79
2023/01/08 08:23:22;;;;;;;;;81.25;61.75;;;;;14.52;50.71;99709.34;5080939;27;8849;-79
2023/01/08 08:25:51;;;;;;;;;88.50;75.25;;;;;14.58;50.45;99704.88;5095154;27;10724;-77
2023/01/08 08:28:20;;;;;;;;;99.75;91.75;;;;;14.59;49.72;99698.75;5094505;27;10036;-80
2023/01/08 08:30:51;;;;;;;;;103.75;91.50;;;;;14.56;49.30;99701.38;5111153;27;11040;-79
2023/01/08 08:33:20;;;;;;;;;89.50;78.25;;;;;14.57;48.87;99702.28;5111796;27;11265;-79
2023/01/08 08:35:50;;;;;;;;;142.00;131.75;;;;;14.73;49.10;99708.19;5111905;27;10169;-79
2023/01/08 08:38:19;;;;;;;;;88.00;73.00;;;;;14.83;48.51;99701.91;5111670;27;11594;-80
2023/01/08 08:40:51;;;;;;;;;91.25;81.25;;;;;14.84;48.19;99701.03;5112039;27;10365;-78
2023/01/08 08:43:20;;;;;;;;;84.50;73.75;;;;;14.94;48.37;99691.25;5111647;27;10528;-79
2023/01/08 08:45:49;;;;;;;;;80.25;66.00;;;;;15.04;48.85;99697.19;5094861;27;10199;-79
2023/01/08 08:48:17;;;;;;;;;87.00;70.50;;;;;15.11;48.32;99696.22;5108721;27;9847;-78
2023/01/08 08:50:46;;;;;;;;;73.50;58.50;;;;;15.25;48.40;99701.22;5097281;27;10834;-80
2023/01/08 08:53:16;;;;;;;;;87.00;71.50;;;;;15.43;48.41;99700.06;5131167;27;10727;-78
2023/01/08 08:55:46;;;;;;;;;78.75;62.50;;;;;15.55;48.39;99692.78;5131713;27;9867;-77
2023/01/08 08:58:14;;;;;;;;;81.25;66.00;;;;;15.60;48.12;99683.06;5114910;27;10414;-79
2023/01/08 09:00:43;;;;;;;;;81.00;64.00;;;;;15.71;48.22;99688.13;5115077;27;9931;-81
2023/01/08 09:03:13;;;;;;;;;84.50;71.25;;;;;15.80;47.75;99689.72;5131624;27;9717;-78
2023/01/08 09:05:43;;;;;;;;;81.75;64.25;;;;;15.80;47.25;99697.59;5133014;27;9626;-81
2023/01/08 09:08:12;;;;;;;;;82.75;68.25;;;;;15.92;46.60;99694.75;5139576;27;10777;-77
2023/01/08 09:10:43;;;;;;;;;80.50;64.50;;;;;15.97;46.86;99690.28;5134458;27;9630;-79
2023/01/08 09:13:12;;;;;;;;;77.75;63.00;;;;;15.96;46.46;99690.31;5115534;27;9577;-80
2023/01/08 09:15:40;;;;;;;;;77.00;60.25;;;;;15.93;46.11;99685.09;5114841;27;9682;-79
2023/01/08 09:18:09;;;;;;;;;84.50;69.00;;;;;16.04;46.04;99688.38;5076226;27;9693;-78
2023/01/08 09:20:39;;;;;;;;;81.25;64.50;;;;;16.05;45.61;99689.22;5127979;27;9775;-80
2023/01/08 09:23:07;;;;;;;;;84.00;69.00;;;;;16.10;45.56;99684.75;5110122;27;9872;-77
2023/01/08 09:25:36;;;;;;;;;76.75;62.00;;;;;16.14;45.75;99678.50;5129386;27;9673;-78
2023/01/08 09:28:08;;;;;;;;;76.00;62.00;;;;;16.06;45.85;99681.31;5111135;27;9535;-78
2023/01/08 09:30:37;;;;;;;;;76.00;60.00;;;;;16.07;45.44;99683.06;5110955;27;9545;-78
2023/01/08 09:33:06;;;;;;;;;80.33;63.33;;;;;16.16;45.20;99676.72;5128368;27;9640;-77
2023/01/08 09:35:35;;;;;;;;;76.00;60.00;;;;;16.13;45.44;99666.28;5111106;27;9399;-76
2023/01/08 09:38:04;;;;;;;;;76.67;62.00;;;;;16.12;45.30;99668.06;5077051;27;9600;-78
2023/01/08 09:40:39;;;;;;;;;78.75;64.75;;;;;16.29;45.01;99669.44;5128200;27;9405;-79
2023/01/08 09:43:17;;;;;;;;;79.00;62.67;;;;;16.34;44.19;99654.41;5094085;27;9799;-77
2023/01/08 09:45:50;;;;;;;;;73.33;58.33;;;;;16.30;44.38;99653.63;5110811;27;9378;-79
2023/01/08 09:48:22;;;;;;;;;86.50;77.25;;;;;16.33;43.93;99650.03;5111758;27;9245;-78
2023/01/08 09:50:51;;;;;;;;;116.75;105.75;;;;;16.44;43.84;99649.81;5130254;27;10347;-78
2023/01/08 09:53:21;;;;;;;;;78.00;60.25;;;;;16.55;43.71;99646.00;5129066;27;11582;-78
2023/01/08 09:55:56;;;;;;;;;73.50;57.75;;;;;16.65;43.18;99643.16;5094696;27;9737;-79
2023/01/08 09:58:43;;;;;;;;;75.67;60.67;;;;;16.66;42.97;99637.88;5112948;27;9788;-80
2023/01/08 10:01:15;;;;;;;;;73.67;58.00;;;;;16.70;43.03;99639.53;5090534;28;9233;-78
2023/01/08 10:03:48;;;;;;;;;76.00;60.00;;;;;16.74;42.63;99630.63;5091020;28;9402;-78
2023/01/08 10:06:18;;;;;;;;;77.00;58.67;;;;;16.77;42.51;99630.56;5059161;28;9255;-78
2023/01/08 10:08:46;;;;;;;;;71.00;58.00;;;;;16.71;42.10;99627.22;5092853;28;9273;-78
2023/01/08 10:11:16;;;;;;;;;75.33;59.67;;;;;16.73;41.92;99626.28;5092522;28;9168;-79
2023/01/08 10:13:50;;;;;;;;;67.67;54.33;;;;;16.82;42.33;99625.22;5069070;28;9244;-78
2023/01/08 10:16:27;;;;;;;;;70.33;56.00;;;;;16.86;42.08;99615.47;5052696;28;8933;-77
2023/01/08 10:18:56;;;;;;;;;70.33;56.00;;;;;16.83;41.73;99605.03;5052509;28;9662;-78
2023/01/08 10:21:30;;;;;;;;;67.25;51.50;;;;;16.84;41.90;99602.38;5052406;28;9054;-79
2023/01/08 10:23:59;;;;;;;;;21.25;14.00;;;;;16.84;41.47;99601.47;5052538;28;8867;-78
2023/01/08 10:26:29;;;;;;;;;60.00;47.33;;;;;16.90;41.95;99596.03;5068949;28;8848;-78
2023/01/08 10:29:12;;;;;;;;;67.33;54.67;;;;;17.07;40.88;99585.97;5051855;28;10023;-79
2023/01/08 10:31:47;;;;;;;;;70.67;55.33;;;;;17.16;41.75;99595.38;5039605;28;8923;-78
2023/01/08 10:34:28;;;;;;;;;77.75;62.75;;;;;17.15;41.14;99577.84;5089147;28;9014;-80
2023/01/08 10:36:57;;;;;;;;;71.00;57.00;;;;;17.15;40.99;99580.47;5088845;28;9626;-79
2023/01/08 10:39:27;;;;;;;;;66.25;53.50;;;;;17.22;40.83;99582.06;5071975;28;9008;-78
2023/01/08 10:42:04;;;;;;;;;67.75;53.50;;;;;17.29;40.82;99582.72;5089137;28;8923;-78
2023/01/08 10:44:34;;;;;;;;;65.75;54.00;;;;;17.33;40.64;99573.81;5103615;27;8869;-77
2023/01/08 10:47:05;;;;;;;;;67.67;54.00;;;;;17.39;40.48;99564.88;5064018;27;8849;-78
2023/01/08 10:49:40;;;;;;;;;64.50;51.50;;;;;17.49;40.24;99564.59;5097412;27;9078;-82
2023/01/08 10:52:24;;;;;;;;;66.75;52.50;;;;;17.61;39.98;99567.78;5139088;27;8953;-79
2023/01/08 10:54:53;;;;;;;;;62.75;51.00;;;;;17.50;39.79;99560.16;5136612;27;8940;-79
2023/01/08 10:57:26;;;;;;;;;68.00;52.00;;;;;17.58;39.92;99557.31;5133842;27;8845;-79
2023/01/08 10:59:57;;;;;;;;;62.75;51.50;;;;;17.60;39.57;99561.66;5114801;27;8849;-79
2023/01/08 11:02:35;;;;;;;;;67.75;53.00;;;;;17.82;38.96;99553.94;5097395;27;8865;-79
2023/01/08 11:05:10;;;;;;;;;64.00;52.75;;;;;17.72;39.21;99552.50;5131102;27;9588;-79
2023/01/08 11:07:40;;;;;;;;;63.25;51.00;;;;;17.77;39.06;99555.00;5113716;27;8845;-80
2023/01/08 11:10:23;;;;;;;;;65.50;50.50;;;;;17.95;38.92;99556.25;5113779;27;8891;-79
2023/01/08 11:12:57;;;;;;;;;72.67;58.00;;;;;18.02;38.73;99549.88;5096513;27;8860;-80
2023/01/08 11:15:37;;;;;;;;;65.50;52.00;;;;;18.18;38.61;99545.84;5113038;27;9267;-80
2023/01/08 11:18:22;;;;;;;;;60.50;49.25;;;;;18.17;38.42;99543.28;5107765;28;8843;-79
2023/01/08 11:20:52;;;;;;;;;60.50;49.00;;;;;17.96;38.26;99540.38;5050473;28;8909;-79
2023/01/08 11:23:23;;;;;;;;;59.75;48.25;;;;;17.92;38.13;99539.63;5067626;28;8855;-79
2023/01/08 11:25:59;;;;;;;;;59.50;48.00;;;;;17.90;38.17;99537.91;5034573;28;8871;-81
2023/01/08 11:28:39;;;;;;;;;55.75;46.50;;;;;17.93;38.09;99543.09;5050976;28;8890;-78
2023/01/08 11:31:14;;;;;;;;;58.00;48.00;;;;;17.88;37.86;99535.34;5050824;28;8871;-80
2023/01/08 11:33:47;;;;;;;;;58.50;46.75;;;;;17.84;37.82;99533.69;5051126;28;8882;-80
2023/01/08 11:36:23;;;;;;;;;55.25;44.25;;;;;17.88;38.05;99524.78;5068126;28;8886;-78